createdAt,value
2023-02-15T00:02:43.883Z,100065.89
2023-02-15T00:06:01.423Z,100063.38
2023-02-15T00:09:13.274Z,100066.71
2023-02-15T00:12:20.625Z,100066.73
2023-02-15T00:15:27.355Z,100070.34
2023-02-15T00:18:32.187Z,100069.42
2023-02-15T00:21:36.302Z,100070.27
2023-02-15T00:24:39.654Z,100066.27
2023-02-15T00:27:46.690Z,100068.59
2023-02-15T00:30:50.222Z,100063.31
2023-02-15T00:33:54.598Z,100066.38
2023-02-15T00:36:57.639Z,100067.46
2023-02-15T00:40:01.158Z,100068.55
2023-02-15T00:43:07.728Z,100068.23
2023-02-15T00:46:10.550Z,100063.20
2023-02-15T00:49:15.450Z,100069.48
2023-02-15T00:52:21.154Z,100070.20
2023-02-15T00:55:24.566Z,100073.88
2023-02-15T00:58:33.536Z,100076.86
2023-02-15T01:01:36.682Z,100076.66
2023-02-15T01:04:40.569Z,100074.39
2023-02-15T01:07:45.010Z,100070.21
2023-02-15T01:10:47.751Z,100073.34
2023-02-15T01:13:52.857Z,100069.92
2023-02-15T01:16:56.638Z,100071.55
2023-02-15T01:20:01.075Z,100075.79
2023-02-15T01:23:03.436Z,100075.99
2023-02-15T01:26:07.514Z,100072.88
2023-02-15T01:29:12.153Z,100077.08
2023-02-15T01:32:15.269Z,100079.31
2023-02-15T01:35:23.656Z,100080.66
2023-02-15T01:38:27.159Z,100079.23
2023-02-15T01:41:31.366Z,100077.30
2023-02-15T01:44:59.054Z,100073.98
2023-02-15T01:48:28.441Z,100078.70
2023-02-15T01:51:38.861Z,100086.39
2023-02-15T01:54:45.543Z,100087.85
2023-02-15T01:57:51.725Z,100089.23
2023-02-15T02:01:01.205Z,100088.71
2023-02-15T02:04:14.317Z,100087.95
2023-02-15T02:07:27.162Z,100094.56
2023-02-15T02:10:29.355Z,100093.06
2023-02-15T02:13:32.544Z,100097.95
2023-02-15T02:16:49.846Z,100097.78
2023-02-15T02:20:11.585Z,100092.95
2023-02-15T02:23:49.570Z,100095.41
2023-02-15T02:27:10.166Z,100098.60
2023-02-15T02:30:37.673Z,100100.53
2023-02-15T02:34:02.697Z,100099.48
2023-02-15T02:37:24.925Z,100107.65
2023-02-15T02:40:57.348Z,100106.96
2023-02-15T02:44:32.648Z,100111.33
2023-02-15T02:47:58.217Z,100111.20
2023-02-15T02:51:00.986Z,100115.07
2023-02-15T02:54:08.331Z,100108.17
2023-02-15T02:57:11.856Z,100113.77
2023-02-15T03:00:19.122Z,100114.13
2023-02-15T03:03:28.706Z,100114.16
2023-02-15T03:06:42.834Z,100118.20
2023-02-15T03:09:53.141Z,100116.70
2023-02-15T03:12:56.892Z,100120.30
2023-02-15T03:16:25.478Z,100123.21
2023-02-15T03:19:37.185Z,100120.84
2023-02-15T03:22:52.790Z,100122.27
2023-02-15T03:26:04.072Z,100123.52
2023-02-15T03:29:13.667Z,100123.36
2023-02-15T03:32:21.630Z,100127.72
2023-02-15T03:35:29.775Z,100125.64
2023-02-15T03:38:46.828Z,100125.29
2023-02-15T03:42:20.001Z,100128.23
2023-02-15T03:45:27.725Z,100133.11
2023-02-15T03:48:43.660Z,100128.40
2023-02-15T03:51:51.520Z,100134.34
2023-02-15T03:54:55.704Z,100133.83
2023-02-15T03:58:17.463Z,100136.96
2023-02-15T04:01:59.130Z,100142.34
2023-02-15T04:05:02.678Z,100143.02
2023-02-15T04:08:09.014Z,100142.36
2023-02-15T04:11:11.097Z,100140.79
2023-02-15T04:14:35.564Z,100142.55
2023-02-15T04:17:40.228Z,100147.45
2023-02-15T04:21:07.796Z,100154.64
2023-02-15T04:24:31.546Z,100158.52
2023-02-15T04:27:34.843Z,100162.39
2023-02-15T04:30:38.160Z,100161.23
2023-02-15T04:33:44.400Z,100161.30
2023-02-15T04:36:51.488Z,100163.04
2023-02-15T04:39:57.542Z,100154.85
2023-02-15T04:43:01.850Z,100155.20
2023-02-15T04:46:05.290Z,100161.77
2023-02-15T04:49:12.375Z,100163.23
2023-02-15T04:52:20.856Z,100160.17
2023-02-15T04:55:27.901Z,100166.13
2023-02-15T04:58:36.470Z,100166.73
2023-02-15T05:01:47.148Z,100169.04
2023-02-15T05:04:53.029Z,100170.96
2023-02-15T05:07:55.722Z,100171.56
2023-02-15T05:11:05.993Z,100172.48
2023-02-15T05:14:11.926Z,100175.85
2023-02-15T05:17:15.797Z,100182.00
2023-02-15T05:20:19.540Z,100182.72
2023-02-15T05:23:24.992Z,100186.36
2023-02-15T05:26:45.606Z,100187.79
2023-02-15T05:29:51.713Z,100195.70
2023-02-15T05:32:59.524Z,100198.42
2023-02-15T05:36:06.482Z,100198.55
2023-02-15T05:39:12.177Z,100197.96
2023-02-15T05:42:21.148Z,100197.34
2023-02-15T05:45:25.022Z,100200.55
2023-02-15T05:48:35.463Z,100203.69
2023-02-15T05:51:43.895Z,100207.05
2023-02-15T05:54:48.443Z,100205.36
2023-02-15T05:57:52.126Z,100206.00
2023-02-15T06:00:56.652Z,100210.77
2023-02-15T06:04:00.359Z,100207.98
2023-02-15T06:07:10.614Z,100216.11
2023-02-15T06:10:17.403Z,100218.76
2023-02-15T06:13:22.230Z,100217.10
2023-02-15T06:16:29.758Z,100221.28
2023-02-15T06:19:31.999Z,100227.05
2023-02-15T06:22:43.070Z,100230.98
2023-02-15T06:26:00.669Z,100231.70
2023-02-15T06:29:16.234Z,100235.52
2023-02-15T06:32:24.870Z,100236.34
2023-02-15T06:35:31.168Z,100238.35
2023-02-15T06:38:53.675Z,100238.37
2023-02-15T06:42:01.899Z,100238.23
2023-02-15T06:45:10.613Z,100233.95
2023-02-15T06:48:13.463Z,100232.96
2023-02-15T06:51:22.193Z,100232.30
2023-02-15T06:54:27.041Z,100233.70
2023-02-15T06:57:41.468Z,100231.06
2023-02-15T07:00:45.538Z,100222.84
2023-02-15T07:03:47.631Z,100223.85
2023-02-15T07:06:54.022Z,100226.95
2023-02-15T07:09:59.238Z,100226.02
2023-02-15T07:13:05.043Z,100216.19
2023-02-15T07:16:14.013Z,100216.79
2023-02-15T07:19:24.252Z,100211.10
2023-02-15T07:22:30.128Z,100205.47
2023-02-15T07:25:36.466Z,100204.76
2023-02-15T07:28:39.425Z,100203.67
2023-02-15T07:31:45.697Z,100207.83
2023-02-15T07:34:59.972Z,100203.64
2023-02-15T07:38:43.839Z,100206.23
2023-02-15T07:41:47.693Z,100209.33
2023-02-15T07:44:50.489Z,100205.18
2023-02-15T07:47:53.868Z,100207.80
2023-02-15T07:51:04.376Z,100212.33
2023-02-15T07:54:09.533Z,100209.77
2023-02-15T07:57:13.769Z,100207.23
2023-02-15T08:00:25.319Z,100224.20
2023-02-15T08:03:31.403Z,100226.23
2023-02-15T08:06:40.600Z,100227.83
2023-02-15T08:09:50.325Z,100232.73
2023-02-15T08:13:03.507Z,100234.64
2023-02-15T08:16:14.724Z,100236.02
2023-02-15T08:19:47.463Z,100232.65
2023-02-15T08:22:58.675Z,100240.77
2023-02-15T08:26:22.314Z,100240.02
2023-02-15T08:29:39.720Z,100243.72
2023-02-15T08:32:50.929Z,100239.60
2023-02-15T08:36:15.621Z,100243.02
2023-02-15T08:39:34.830Z,100239.49
2023-02-15T08:42:47.628Z,100233.35
2023-02-15T08:46:05.837Z,100247.11
2023-02-15T08:49:23.619Z,100242.23
2023-02-15T08:52:58.939Z,100239.94
2023-02-15T08:56:14.960Z,100243.13
2023-02-15T08:59:27.244Z,100240.36
2023-02-15T09:02:55.396Z,100244.75
2023-02-15T09:06:16.886Z,100244.80
2023-02-15T09:09:44.282Z,100246.27
2023-02-15T09:13:14.575Z,100243.96
2023-02-15T09:20:03.654Z,100247.52
2023-02-15T09:23:25.562Z,100246.34
2023-02-15T09:26:41.055Z,100242.21
2023-02-15T09:29:44.868Z,100247.36
2023-02-15T09:32:48.558Z,100246.70
2023-02-15T09:36:02.928Z,100236.05
2023-02-15T09:39:14.375Z,100243.73
2023-02-15T09:42:37.363Z,100249.95
2023-02-15T09:46:13.789Z,100247.01
2023-02-15T09:49:28.293Z,100256.30
2023-02-15T09:52:48.910Z,100246.35
2023-02-15T09:56:14.755Z,100245.80
2023-02-15T10:00:04.409Z,100250.30
2023-02-15T10:03:59.233Z,100236.77
2023-02-15T10:07:44.281Z,100231.19
2023-02-15T10:11:26.494Z,100233.18
2023-02-15T10:14:42.024Z,100239.15
2023-02-15T10:18:06.532Z,100234.52
2023-02-15T10:21:51.046Z,100241.61
2023-02-15T10:25:28.474Z,100236.73
2023-02-15T10:29:03.448Z,100229.45
2023-02-15T10:32:55.058Z,100226.96
2023-02-15T10:36:31.336Z,100216.08
2023-02-15T10:39:51.705Z,100229.23
2023-02-15T10:43:26.375Z,100224.73
2023-02-15T10:46:48.852Z,100221.00
2023-02-15T10:50:25.798Z,100217.64
2023-02-15T10:53:31.789Z,100221.61
2023-02-15T10:57:00.202Z,100221.30
2023-02-15T11:00:50.465Z,100214.89
2023-02-15T11:04:35.338Z,100214.93
2023-02-15T11:07:45.901Z,100221.46
2023-02-15T11:10:54.952Z,100209.50
2023-02-15T11:14:29.164Z,100203.65
2023-02-15T11:17:47.164Z,100201.10
2023-02-15T11:21:41.114Z,100199.34
2023-02-15T11:24:48.802Z,100201.77
2023-02-15T11:28:04.224Z,100193.81
2023-02-15T11:31:44.183Z,100197.83
2023-02-15T11:34:59.282Z,100200.06
2023-02-15T11:38:09.237Z,100204.77
2023-02-15T11:41:24.986Z,100193.23
2023-02-15T11:44:37.727Z,100186.63
2023-02-15T11:47:45.813Z,100184.27
2023-02-15T11:50:50.315Z,100181.77
2023-02-15T11:53:56.730Z,100177.85
2023-02-15T11:57:32.588Z,100180.23
2023-02-15T12:00:53.609Z,100171.98
2023-02-15T12:04:06.349Z,100175.08
2023-02-15T12:07:27.877Z,100172.52
2023-02-15T12:10:43.157Z,100177.73
2023-02-15T12:14:08.765Z,100179.92
2023-02-15T12:17:19.245Z,100177.89
2023-02-15T12:20:29.769Z,100170.03
2023-02-15T12:23:40.399Z,100165.65
2023-02-15T12:26:59.353Z,100172.34
2023-02-15T12:30:22.674Z,100169.39
2023-02-15T12:33:46.242Z,100165.63
2023-02-15T12:37:01.165Z,100173.45
2023-02-15T12:40:26.273Z,100164.23
2023-02-15T12:43:36.572Z,100163.33
2023-02-15T12:47:16.956Z,100167.10
2023-02-15T12:50:34.595Z,100164.17
2023-02-15T12:53:39.583Z,100157.90
2023-02-15T12:56:42.608Z,100173.84
2023-02-15T13:00:23.931Z,100162.58
2023-02-15T13:03:29.710Z,100155.45
2023-02-15T13:06:37.294Z,100156.14
2023-02-15T13:09:52.865Z,100158.39
2023-02-15T13:12:59.243Z,100165.52
2023-02-15T13:16:36.258Z,100177.04
2023-02-15T13:19:51.772Z,100174.81
2023-02-15T13:23:02.013Z,100173.46
2023-02-15T13:26:15.063Z,100167.81
2023-02-15T13:29:39.140Z,100177.23
2023-02-15T13:32:49.155Z,100184.42
2023-02-15T13:36:31.745Z,100184.52
2023-02-15T13:40:23.685Z,100175.93
2023-02-15T13:43:33.654Z,100184.09
2023-02-15T13:47:09.920Z,100184.02
2023-02-15T13:50:21.213Z,100187.80
2023-02-15T13:54:01.636Z,100174.95
2023-02-15T13:57:12.398Z,100184.72
2023-02-15T14:00:25.263Z,100189.05
2023-02-15T14:04:01.212Z,100182.89
2023-02-15T14:07:44.390Z,100182.05
2023-02-15T14:11:08.203Z,100185.42
2023-02-15T14:15:00.100Z,100193.17
2023-02-15T14:18:51.100Z,100187.85
2023-02-15T14:22:20.469Z,100186.11
2023-02-15T14:25:50.319Z,100189.42
2023-02-15T14:29:06.745Z,100192.52
2023-02-15T14:32:19.876Z,100190.21
2023-02-15T14:35:32.354Z,100197.20
2023-02-15T14:39:06.872Z,100204.35
2023-02-15T14:42:25.976Z,100206.42
2023-02-15T14:45:34.324Z,100209.31
2023-02-15T14:48:59.996Z,100212.52
2023-02-15T14:52:08.971Z,100214.88
2023-02-15T14:55:37.137Z,100214.14
2023-02-15T14:59:14.752Z,100210.92
2023-02-15T15:02:23.225Z,100217.30
2023-02-15T15:05:35.279Z,100224.76
2023-02-15T15:08:43.499Z,100230.46
2023-02-15T15:11:54.131Z,100224.27
2023-02-15T15:15:04.823Z,100226.94
2023-02-15T15:18:13.083Z,100229.39
2023-02-15T15:21:54.136Z,100236.55
2023-02-15T15:25:11.703Z,100246.14
2023-02-15T15:28:39.468Z,100240.89
2023-02-15T15:32:00.616Z,100239.70
2023-02-15T15:35:37.256Z,100244.21
2023-02-15T15:39:10.877Z,100247.48
2023-02-15T15:42:23.403Z,100253.11
2023-02-15T15:46:10.644Z,100256.77
2023-02-15T15:49:24.039Z,100259.42
2023-02-15T15:52:38.241Z,100259.43
2023-02-15T15:55:43.654Z,100257.31
2023-02-15T15:59:00.387Z,100258.20
2023-02-15T16:02:07.758Z,100256.67
2023-02-15T16:05:14.772Z,100260.41
2023-02-15T16:08:35.040Z,100263.23
2023-02-15T16:11:42.150Z,100261.09
2023-02-15T16:14:47.857Z,100261.78
2023-02-15T16:17:58.181Z,100266.76
2023-02-15T16:21:02.549Z,100271.19
2023-02-15T16:24:20.630Z,100271.25
2023-02-15T16:27:44.878Z,100266.58
2023-02-15T16:31:09.643Z,100272.77
2023-02-15T16:34:22.003Z,100275.14
2023-02-15T16:37:32.838Z,100278.14
2023-02-15T16:40:44.459Z,100277.34
2023-02-15T16:44:00.427Z,100276.69
2023-02-15T16:47:12.276Z,100277.59
2023-02-15T16:50:32.414Z,100278.52
2023-02-15T16:53:57.360Z,100275.98
2023-02-15T16:57:38.527Z,100274.30
2023-02-15T17:00:42.639Z,100277.90
2023-02-15T17:04:11.214Z,100280.90
2023-02-15T17:07:21.821Z,100287.75
2023-02-15T17:10:42.183Z,100288.27
2023-02-15T17:14:32.982Z,100287.48
2023-02-15T17:17:40.871Z,100287.79
2023-02-15T17:20:47.058Z,100287.73
2023-02-15T17:23:53.077Z,100286.27
2023-02-15T17:27:33.742Z,100279.68
2023-02-15T17:30:40.037Z,100280.33
2023-02-15T17:33:47.089Z,100280.05
2023-02-15T17:37:02.856Z,100275.05
2023-02-15T17:40:21.131Z,100274.23
2023-02-15T17:43:25.585Z,100277.11
2023-02-15T17:46:35.083Z,100274.38
2023-02-15T17:49:40.718Z,100273.36
2023-02-15T17:52:42.847Z,100270.64
2023-02-15T17:55:49.029Z,100268.77
2023-02-15T17:59:11.769Z,100272.98
2023-02-15T18:02:36.315Z,100275.50
2023-02-15T18:05:59.897Z,100279.45
2023-02-15T18:09:37.916Z,100283.67
2023-02-15T18:12:49.274Z,100287.92
2023-02-15T18:15:56.111Z,100282.73
2023-02-15T18:19:00.552Z,100282.81
2023-02-15T18:22:15.130Z,100284.58
2023-02-15T18:25:21.231Z,100285.85
2023-02-15T18:28:23.545Z,100284.52
2023-02-15T18:31:31.465Z,100277.06
2023-02-15T18:34:40.473Z,100280.42
2023-02-15T18:37:48.405Z,100285.00
2023-02-15T18:40:58.890Z,100286.34
2023-02-15T18:44:24.306Z,100289.02
2023-02-15T18:47:32.334Z,100287.69
2023-02-15T18:50:39.436Z,100290.03
2023-02-15T18:53:44.130Z,100293.80
2023-02-15T18:57:00.429Z,100293.20
2023-02-15T19:00:07.146Z,100298.34
2023-02-15T19:03:19.133Z,100295.61
2023-02-15T19:06:25.511Z,100297.95
2023-02-15T19:09:32.863Z,100295.24
2023-02-15T19:12:36.509Z,100289.78
2023-02-15T19:15:44.728Z,100289.52
2023-02-15T19:19:15.556Z,100286.60
2023-02-15T19:22:33.357Z,100283.82
2023-02-15T19:25:42.356Z,100283.36
2023-02-15T19:28:54.705Z,100287.05
2023-02-15T19:32:09.843Z,100284.19
2023-02-15T19:35:22.023Z,100282.14
2023-02-15T19:38:36.634Z,100278.03
2023-02-15T19:41:42.269Z,100276.70
2023-02-15T19:44:48.696Z,100280.40
2023-02-15T19:47:58.077Z,100276.96
2023-02-15T19:51:10.558Z,100277.16
2023-02-15T19:54:31.573Z,100280.55
2023-02-15T19:57:35.421Z,100279.56
2023-02-15T20:00:40.531Z,100279.11
2023-02-15T20:03:46.020Z,100276.34
2023-02-15T20:07:00.105Z,100274.97
2023-02-15T20:10:24.653Z,100275.74
2023-02-15T20:13:30.402Z,100281.02
2023-02-15T20:16:35.736Z,100282.85
2023-02-15T20:19:47.845Z,100287.82
2023-02-15T20:23:03.843Z,100287.52
2023-02-15T20:26:22.649Z,100287.60
2023-02-15T20:29:42.729Z,100284.13
2023-02-15T20:32:51.131Z,100281.38
2023-02-15T20:35:54.509Z,100280.92
2023-02-15T20:39:14.846Z,100280.08
2023-02-15T20:42:23.649Z,100288.64
2023-02-15T20:45:31.234Z,100281.35
2023-02-15T20:48:40.301Z,100281.23
2023-02-15T20:51:44.085Z,100278.49
2023-02-15T20:54:50.053Z,100276.80
2023-02-15T20:57:54.207Z,100272.98
2023-02-15T21:01:02.728Z,100275.10
2023-02-15T21:04:18.494Z,100276.17
2023-02-15T21:07:37.353Z,100274.65
2023-02-15T21:10:48.018Z,100274.48
2023-02-15T21:13:52.117Z,100273.46
2023-02-15T21:17:01.763Z,100268.75
2023-02-15T21:20:17.808Z,100274.71
2023-02-15T21:23:36.883Z,100271.59
2023-02-15T21:26:47.157Z,100274.56
2023-02-15T21:30:01.032Z,100272.68
2023-02-15T21:33:05.362Z,100276.20
2023-02-15T21:36:19.985Z,100276.20
2023-02-15T21:39:27.301Z,100278.84
2023-02-15T21:42:50.370Z,100275.41
2023-02-15T21:46:13.211Z,100275.08
2023-02-15T21:49:20.241Z,100279.54
2023-02-15T21:52:27.589Z,100281.31
2023-02-15T21:55:36.547Z,100284.83
2023-02-15T21:58:43.781Z,100285.40
2023-02-15T22:01:50.811Z,100282.84
2023-02-15T22:04:55.660Z,100281.81
2023-02-15T22:07:58.906Z,100281.48
2023-02-15T22:11:11.567Z,100276.64
2023-02-15T22:14:33.584Z,100279.13
2023-02-15T22:17:40.050Z,100279.33
2023-02-15T22:20:45.743Z,100274.98
2023-02-15T22:23:50.086Z,100276.95
2023-02-15T22:26:54.383Z,100275.98
2023-02-15T22:29:59.827Z,100276.89
2023-02-15T22:33:04.716Z,100272.41
2023-02-15T22:36:24.299Z,100270.52
2023-02-15T22:39:28.657Z,100271.10
2023-02-15T22:42:32.757Z,100272.19
2023-02-15T22:45:38.845Z,100271.50
2023-02-15T22:48:44.233Z,100272.58
2023-02-15T22:51:51.156Z,100274.69
2023-02-15T22:54:55.544Z,100275.23
2023-02-15T22:58:00.605Z,100274.23
2023-02-15T23:01:06.797Z,100272.15
2023-02-15T23:04:40.822Z,100271.83
2023-02-15T23:07:49.402Z,100271.33
2023-02-15T23:10:55.653Z,100270.98
2023-02-15T23:14:02.462Z,100271.50
2023-02-15T23:17:05.946Z,100263.83
2023-02-15T23:20:16.005Z,100264.76
2023-02-15T23:23:29.706Z,100265.52
2023-02-15T23:26:37.212Z,100265.20
2023-02-15T23:29:42.578Z,100265.05
2023-02-15T23:32:46.244Z,100268.71
2023-02-15T23:35:51.854Z,100271.30
2023-02-15T23:38:57.759Z,100272.70
2023-02-15T23:42:06.749Z,100276.02
2023-02-15T23:45:25.297Z,100275.47
2023-02-15T23:48:34.148Z,100276.14
2023-02-15T23:51:37.073Z,100282.61
2023-02-15T23:54:39.456Z,100277.77
2023-02-15T23:57:42.866Z,100276.93
